Time;durP1;ratioP1;P1;durP2;ratioP2;P2;SDS_P1;SDS_P2;PMS_P1;PMS_P2;Temp;Humidity;BMP_temperature;BMP_pressure;BME280_temperature;BME280_humidity;BME280_pressure;Samples;Min_cycle;Max_cycle;Signal;HPM_P1;HPM_P2
2023/06/14 00:00:34;;;;;;;;;;;23.00;35.70;;;23.05;26.66;98129.75;5022818;27;123779;-80
2023/06/14 00:03:04;;;;;;;;;;;22.90;35.70;;;23.00;26.74;98131.00;5020254;27;124201;-80
2023/06/14 00:05:38;;;;;;;;;;;22.90;35.70;;;22.93;27.12;98131.81;5027488;27;115079;-80
2023/06/14 00:08:07;;;;;;;;;;;22.80;35.70;;;22.89;26.77;98136.66;5024800;27;113777;-81
2023/06/14 00:10:35;;;;;;;;;;;22.80;35.80;;;22.85;27.02;98130.25;5018459;27;123840;-81
2023/06/14 00:13:07;;;;;;;;;;;22.70;35.80;;;22.83;26.94;98141.09;5013483;27;124159;-81
2023/06/14 00:15:33;;;;;;;;;;;22.70;36.00;;;22.79;27.07;98136.72;5020453;28;114451;-81
2023/06/14 00:18:03;;;;;;;;;;;22.60;36.10;;;22.76;27.47;98143.97;5027820;27;112688;-82
2023/06/14 00:20:33;;;;;;;;;;;22.60;36.20;;;22.73;27.67;98139.19;5031238;27;124462;-81
2023/06/14 00:23:00;;;;;;;;;;;22.50;36.20;;;22.69;27.77;98144.00;5026504;27;124046;-81
2023/06/14 00:25:26;;;;;;;;;;;22.50;36.50;;;22.68;27.53;98145.22;5027168;28;114679;-81
2023/06/14 00:27:53;;;;;;;;;;;22.50;36.60;;;22.64;27.57;98148.03;5024417;27;113607;-81
2023/06/14 00:30:22;;;;;;;;;;;22.40;36.70;;;22.61;27.91;98142.44;5026067;27;124116;-81
2023/06/14 00:32:49;;;;;;;;;;;22.40;36.90;;;22.57;27.93;98150.09;5015542;27;123960;-81
2023/06/14 00:35:16;;;;;;;;;;;22.40;37.00;;;22.52;27.87;98144.91;5039954;27;114468;-81
2023/06/14 00:37:42;;;;;;;;;;;22.30;37.00;;;22.49;27.95;98140.91;5021596;27;113629;-81
2023/06/14 00:40:08;;;;;;;;;;;22.30;37.30;;;22.46;28.18;98142.50;5025182;27;124072;-81
2023/06/14 00:42:35;;;;;;;;;;;22.30;37.40;;;22.43;28.32;98137.69;5024121;27;124381;-81
2023/06/14 00:45:01;;;;;;;;;;;22.30;37.60;;;22.44;28.24;98142.09;5025189;28;115234;-82
2023/06/14 00:47:27;;;;;;;;;;;22.20;37.60;;;22.42;28.47;98140.91;5024673;27;114623;-81
2023/06/14 00:49:55;;;;;;;;;;;22.20;37.70;;;22.39;28.63;98141.72;5031734;27;124007;-81
2023/06/14 00:52:24;;;;;;;;;;;22.20;37.80;;;22.34;28.61;98137.31;5036289;27;123945;-81
2023/06/14 00:54:50;;;;;;;;;;;22.10;37.70;;;22.30;28.49;98139.34;5018141;27;114440;-81
2023/06/14 00:57:16;;;;;;;;;;;22.10;37.80;;;22.28;28.80;98139.75;5030666;27;113577;-81
2023/06/14 00:59:47;;;;;;;;;;;22.00;37.90;;;22.24;28.68;98136.13;5026354;27;123241;-81
2023/06/14 01:02:19;;;;;;;;;;;22.00;38.10;;;22.21;28.81;98144.59;5027380;27;123673;-81
2023/06/14 01:04:50;;;;;;;;;;;22.00;38.20;;;22.18;29.14;98142.56;5019456;27;114352;-82
2023/06/14 01:07:38;;;;;;;;;;;22.00;38.40;;;22.13;29.07;98140.16;5010492;27;114374;-81
2023/06/14 01:10:26;;;;;;;;;;;21.90;38.50;;;22.10;29.04;98146.63;5022795;28;124687;-81
2023/06/14 01:12:58;;;;;;;;;;;21.90;38.70;;;22.05;29.48;98145.81;5026047;27;126099;-82
2023/06/14 01:15:24;;;;;;;;;;;21.90;38.80;;;22.03;29.48;98153.88;5026233;28;114387;-81
2023/06/14 01:17:53;;;;;;;;;;;21.60;38.70;;;22.00;29.28;98153.84;5025829;27;113697;-81
2023/06/14 01:20:22;;;;;;;;;;;21.80;39.00;;;21.98;29.75;98150.66;5023522;27;124575;-81
2023/06/14 01:22:57;;;;;;;;;;;21.80;39.20;;;21.94;29.46;98161.91;5014997;27;123419;-81
2023/06/14 01:25:24;;;;;;;;;;;21.70;39.30;;;21.91;29.90;98159.09;5009709;27;113608;-81
2023/06/14 01:28:03;;;;;;;;;;;21.70;39.40;;;21.88;30.05;98160.72;5012582;27;113191;-81
2023/06/14 01:30:30;;;;;;;;;;;21.70;39.50;;;21.83;30.08;98167.53;5022556;27;123605;-81
2023/06/14 01:32:59;;;;;;;;;;;21.60;39.60;;;21.79;29.85;98157.53;5016074;27;123049;-81
2023/06/14 01:35:26;;;;;;;;;;;21.60;39.70;;;21.75;30.03;98156.72;5025507;27;115551;-82
2023/06/14 01:37:53;;;;;;;;;;;21.60;40.60;;;21.72;30.33;98158.31;5026160;28;114836;-82
2023/06/14 01:40:19;;;;;;;;;;;21.50;39.90;;;21.69;30.26;98158.34;5014876;27;124340;-81
2023/06/14 01:42:50;;;;;;;;;;;21.50;40.00;;;21.65;30.30;98149.88;5026187;27;124100;-82
2023/06/14 01:45:17;;;;;;;;;;;21.50;40.10;;;21.62;30.19;98154.31;5011747;27;114426;-81
2023/06/14 01:47:44;;;;;;;;;;;21.40;40.10;;;21.58;30.64;98156.31;5012625;28;113059;-80
2023/06/14 01:50:10;;;;;;;;;;;21.40;40.10;;;21.55;30.46;98154.31;5009305;28;123983;-80
2023/06/14 01:52:39;;;;;;;;;;;21.30;40.10;;;21.51;30.27;98159.13;5017856;27;123929;-80
2023/06/14 01:55:06;;;;;;;;;;;21.30;40.20;;;21.48;30.39;98168.38;5022215;27;114400;-80
2023/06/14 01:57:32;;;;;;;;;;;21.30;40.30;;;21.44;30.46;98153.53;5025826;27;113766;-81
2023/06/14 01:59:58;;;;;;;;;;;21.20;40.30;;;21.42;30.65;98158.72;5026347;28;124148;-81
2023/06/14 02:02:25;;;;;;;;;;;21.20;40.40;;;21.38;30.62;98155.91;5027739;27;122765;-81
2023/06/14 02:04:52;;;;;;;;;;;21.20;40.60;;;21.35;31.14;98159.50;5020345;27;114117;-80
2023/06/14 02:07:18;;;;;;;;;;;21.20;40.70;;;21.33;31.14;98155.47;5029790;27;114004;-81
2023/06/14 02:09:44;;;;;;;;;;;21.10;40.90;;;21.30;31.30;98159.09;5030700;27;124122;-80
2023/06/14 02:12:11;;;;;;;;;;;21.10;41.10;;;21.27;31.29;98165.50;5029101;27;125669;-80
2023/06/14 02:14:38;;;;;;;;;;;21.10;41.20;;;21.25;31.36;98165.09;5029985;27;114218;-80
2023/06/14 02:17:06;;;;;;;;;;;21.00;41.20;;;21.21;31.58;98162.28;5030067;27;113872;-80
2023/06/14 02:19:33;;;;;;;;;;;21.00;41.40;;;21.18;31.54;98161.09;5029609;27;125831;-80
2023/06/14 02:21:59;;;;;;;;;;;21.00;41.50;;;21.17;31.81;98155.84;5033141;27;122958;-80
2023/06/14 02:24:25;;;;;;;;;;;21.00;41.60;;;21.16;31.42;98159.88;5017258;27;115937;-79
2023/06/14 02:26:51;;;;;;;;;;;21.00;41.70;;;21.13;31.88;98158.66;5026270;27;116564;-80
2023/06/14 02:29:18;;;;;;;;;;;20.90;41.70;;;21.11;31.76;98155.44;5015879;27;124438;-80
2023/06/14 02:31:48;;;;;;;;;;;20.90;41.70;;;21.07;31.97;98154.66;5008623;28;122505;-80
2023/06/14 02:34:17;;;;;;;;;;;20.90;41.80;;;21.04;31.65;98149.84;5013497;27;114091;-80
2023/06/14 02:36:49;;;;;;;;;;;20.80;41.80;;;21.00;31.93;98157.44;5025561;27;113717;-80
2023/06/14 02:39:20;;;;;;;;;;;20.80;41.80;;;20.96;32.00;98156.63;5020643;27;124395;-80
2023/06/14 02:41:46;;;;;;;;;;;20.80;41.90;;;20.92;32.03;98161.44;5030723;27;125283;-80
2023/06/14 02:44:13;;;;;;;;;;;20.70;41.80;;;20.89;31.62;98163.03;5031872;27;114411;-80
2023/06/14 02:46:40;;;;;;;;;;;20.70;41.90;;;20.86;32.09;98155.41;5029627;27;113578;-80
2023/06/14 02:49:06;;;;;;;;;;;20.60;41.80;;;20.84;31.81;98157.00;5003081;28;123310;-79
2023/06/14 02:51:34;;;;;;;;;;;20.60;42.60;;;20.79;31.81;98157.38;5027755;27;123834;-81
2023/06/14 02:54:01;;;;;;;;;;;20.60;41.90;;;20.77;31.95;98163.41;5028976;27;114616;-80
2023/06/14 02:56:29;;;;;;;;;;;20.50;41.90;;;20.72;32.04;98164.59;5031270;27;113310;-80
2023/06/14 02:58:55;;;;;;;;;;;20.50;42.00;;;20.69;32.08;98168.19;5028490;28;124414;-80
2023/06/14 03:01:23;;;;;;;;;;;20.50;42.10;;;20.65;32.18;98163.75;5029306;27;123843;-81
2023/06/14 03:03:49;;;;;;;;;;;20.40;42.10;;;20.62;32.03;98168.16;5024436;27;113763;-80
2023/06/14 03:06:16;;;;;;;;;;;20.40;42.90;;;20.60;32.32;98173.34;5030090;27;113654;-80
2023/06/14 03:08:43;;;;;;;;;;;20.40;42.30;;;20.57;32.42;98168.53;5039895;27;124798;-80
2023/06/14 03:11:10;;;;;;;;;;;20.40;42.40;;;20.55;32.59;98173.72;5028758;27;124101;-80
2023/06/14 03:13:37;;;;;;;;;;;20.30;42.40;;;20.53;32.61;98173.31;5027657;27;115945;-80
2023/06/14 03:16:03;;;;;;;;;;;20.30;42.50;;;20.51;32.52;98170.09;5028508;27;114748;-80
2023/06/14 03:18:33;;;;;;;;;;;20.30;42.60;;;20.50;32.39;98177.72;5027690;27;124219;-81
2023/06/14 03:20:59;;;;;;;;;;;20.20;42.70;;;20.48;32.76;98173.69;5017585;27;124044;-81
2023/06/14 03:23:25;;;;;;;;;;;20.30;42.80;;;20.47;32.70;98172.06;5031071;27;114597;-81
2023/06/14 03:25:51;;;;;;;;;;;20.20;42.80;;;20.44;32.65;98184.06;5027971;27;113623;-81
2023/06/14 03:28:18;;;;;;;;;;;20.20;42.90;;;20.42;32.97;98180.88;5028628;27;124347;-82
2023/06/14 03:30:44;;;;;;;;;;;20.20;43.00;;;20.38;32.95;98186.47;5046257;27;123965;-81
2023/06/14 03:33:16;;;;;;;;;;;20.20;43.20;;;20.36;33.10;98191.66;5040050;27;113682;-81
2023/06/14 03:35:43;;;;;;;;;;;20.10;43.20;;;20.34;33.13;98184.81;5014292;27;112866;-81
2023/06/14 03:38:09;;;;;;;;;;;20.10;43.40;;;20.31;33.35;98197.66;5027902;27;124422;-80
2023/06/14 03:40:38;;;;;;;;;;;20.10;43.40;;;20.29;33.19;98195.25;5028263;27;124582;-81
2023/06/14 03:43:07;;;;;;;;;;;20.10;43.50;;;20.29;33.50;98198.03;5049744;27;114405;-82
2023/06/14 03:45:33;;;;;;;;;;;20.00;43.50;;;20.27;33.28;98197.63;5034139;27;113451;-81
2023/06/14 03:48:00;;;;;;;;;;;20.00;43.60;;;20.26;33.54;98210.06;5028880;27;124164;-81
2023/06/14 03:50:27;;;;;;;;;;;20.00;43.60;;;20.26;33.11;98201.63;5014094;28;122907;-80
2023/06/14 03:52:55;;;;;;;;;;;20.00;43.70;;;20.27;33.40;98211.66;5031044;27;114565;-81
2023/06/14 03:55:25;;;;;;;;;;;20.00;43.70;;;20.25;33.16;98208.44;5031256;27;113762;-82
2023/06/14 03:57:51;;;;;;;;;;;20.00;43.70;;;20.24;33.27;98215.25;5025362;27;123882;-82
2023/06/14 04:00:18;;;;;;;;;;;19.90;43.70;;;20.25;33.25;98205.63;5017530;28;123873;-82
2023/06/14 04:02:44;;;;;;;;;;;20.00;43.80;;;20.37;33.20;98217.72;5021247;27;115545;-80
2023/06/14 04:05:10;;;;;;;;;;;20.00;44.00;;;20.43;33.01;98216.94;5025871;27;114830;-81
2023/06/14 04:07:40;;;;;;;;;;;20.00;44.10;;;20.44;33.49;98221.34;5022277;27;124395;-82
2023/06/14 04:10:07;;;;;;;;;;;20.00;44.20;;;20.42;33.41;98220.97;5022814;27;124149;-81
2023/06/14 04:12:34;;;;;;;;;;;20.00;44.30;;;20.41;33.44;98224.16;5019950;27;114494;-80
2023/06/14 04:15:00;;;;;;;;;;;20.00;44.30;;;20.40;33.77;98225.38;5014467;28;113164;-80
2023/06/14 04:17:27;;;;;;;;;;;20.00;44.30;;;20.39;33.83;98227.38;5032307;27;124247;-81
2023/06/14 04:19:53;;;;;;;;;;;20.00;44.40;;;20.35;33.61;98217.31;5028156;27;124122;-80
2023/06/14 04:22:19;;;;;;;;;;;20.00;44.30;;;20.29;33.64;98228.91;5014867;28;114152;-80
2023/06/14 04:24:46;;;;;;;;;;;20.00;44.20;;;20.22;33.73;98234.47;5029056;27;113714;-80
2023/06/14 04:27:14;;;;;;;;;;;19.90;44.20;;;20.14;33.97;98232.81;5029304;27;124417;-81
2023/06/14 04:29:43;;;;;;;;;;;19.90;44.30;;;20.08;34.06;98243.59;5027131;27;124546;-81
2023/06/14 04:32:10;;;;;;;;;;;19.90;44.40;;;20.06;33.85;98245.16;5032232;27;114526;-81
2023/06/14 04:34:39;;;;;;;;;;;19.80;44.40;;;20.03;34.02;98241.13;5029211;27;113974;-80
2023/06/14 04:37:08;;;;;;;;;;;19.80;44.40;;;20.03;34.02;98234.72;5018864;27;124240;-81
2023/06/14 04:39:36;;;;;;;;;;;19.80;44.50;;;20.02;34.09;98236.75;5021299;27;123980;-81
2023/06/14 04:42:04;;;;;;;;;;;19.80;44.60;;;20.03;33.93;98243.94;5026319;27;114246;-80
2023/06/14 04:44:31;;;;;;;;;;;19.80;44.60;;;20.03;33.93;98238.34;5017991;27;112895;-80
2023/06/14 04:46:58;;;;;;;;;;;19.80;44.60;;;20.06;34.06;98243.16;5011377;27;124813;-79
2023/06/14 04:49:27;;;;;;;;;;;19.80;44.50;;;20.06;33.73;98239.56;5027121;27;123775;-80
2023/06/14 04:52:01;;;;;;;;;;;19.80;44.50;;;20.06;34.08;98237.56;5027559;28;115629;-79
2023/06/14 04:54:27;;;;;;;;;;;19.80;44.60;;;20.08;34.09;98251.19;5027595;28;114922;-79
2023/06/14 04:56:55;;;;;;;;;;;19.80;44.50;;;20.08;33.79;98254.00;5027047;27;124542;-79
2023/06/14 04:59:22;;;;;;;;;;;19.70;44.40;;;20.09;33.91;98266.81;5027458;27;124222;-80
2023/06/14 05:01:50;;;;;;;;;;;19.80;44.40;;;20.10;34.01;98260.03;5024563;27;114390;-80
2023/06/14 05:04:17;;;;;;;;;;;19.80;44.80;;;20.12;34.14;98265.25;5020147;27;114093;-81
2023/06/14 05:06:54;;;;;;;;;;;19.80;44.80;;;20.14;34.06;98263.66;5026161;27;123734;-80
2023/06/14 05:09:23;;;;;;;;;;;19.80;45.00;;;20.16;34.42;98268.88;5026379;27;124323;-81
2023/06/14 05:11:50;;;;;;;;;;;19.80;45.60;;;20.13;34.69;98275.28;5027069;27;114369;-81
2023/06/14 05:14:17;;;;;;;;;;;19.70;45.70;;;20.14;35.97;98272.06;5025716;28;113816;-80
2023/06/14 05:16:44;;;;;;;;;;;19.80;46.50;;;20.19;35.08;98268.09;5005980;27;124179;-81
2023/06/14 05:19:10;;;;;;;;;;;19.80;46.50;;;20.20;34.70;98276.16;5022540;27;124859;-80
2023/06/14 05:21:37;;;;;;;;;;;19.80;46.10;;;20.22;34.86;98268.13;5030059;27;114079;-81
2023/06/14 05:24:03;;;;;;;;;;;19.80;46.20;;;20.27;34.66;98281.00;5028759;27;113270;-80
2023/06/14 05:26:30;;;;;;;;;;;19.80;46.00;;;20.23;34.70;98275.38;5026222;27;124081;-80
2023/06/14 05:28:56;;;;;;;;;;;19.80;45.90;;;20.25;34.66;98272.94;5022112;27;124593;-81
2023/06/14 05:31:23;;;;;;;;;;;19.90;46.00;;;20.33;34.70;98278.63;5008941;27;114470;-80
2023/06/14 05:33:50;;;;;;;;;;;19.90;45.80;;;20.38;34.71;98269.84;5018006;27;114483;-79
2023/06/14 05:36:17;;;;;;;;;;;20.00;45.70;;;20.41;34.39;98271.84;5034285;27;123278;-81
2023/06/14 05:38:43;;;;;;;;;;;20.00;45.60;;;20.43;34.44;98277.88;5016282;27;123817;-80
2023/06/14 05:41:09;;;;;;;;;;;20.00;45.60;;;20.44;34.39;98285.91;5014783;27;115578;-84
2023/06/14 05:43:35;;;;;;;;;;;20.00;45.50;;;20.47;34.02;98284.31;5001873;27;114761;-80
2023/06/14 05:46:02;;;;;;;;;;;20.10;45.60;;;20.47;33.95;98278.69;5018616;27;123507;-81
2023/06/14 05:48:28;;;;;;;;;;;20.10;45.40;;;20.51;33.93;98285.16;5019394;27;123902;-80
2023/06/14 05:50:55;;;;;;;;;;;20.10;45.40;;;20.55;33.92;98280.38;5020955;27;113309;-80
2023/06/14 05:53:21;;;;;;;;;;;20.10;45.40;;;20.58;33.88;98281.59;5030288;27;114011;-79
2023/06/14 05:55:53;;;;;;;;;;;20.10;45.30;;;20.66;33.84;98272.84;5010344;28;125170;-78
2023/06/14 05:58:20;;;;;;;;;;;20.20;45.30;;;20.76;33.78;98278.91;5012357;27;123446;-80
2023/06/14 06:00:46;;;;;;;;;;;20.30;45.30;;;20.85;33.53;98276.56;5025137;27;114448;-79
2023/06/14 06:03:13;;;;;;;;;;;20.40;45.10;;;20.95;33.47;98281.41;5023263;28;114383;-79
2023/06/14 06:05:39;;;;;;;;;;;20.40;45.10;;;21.03;33.60;98271.78;5021531;27;124162;-79
2023/06/14 06:08:05;;;;;;;;;;;20.50;45.00;;;21.12;33.07;98280.69;5025313;28;123887;-79
2023/06/14 06:10:32;;;;;;;;;;;20.60;45.10;;;21.19;33.44;98274.25;5027667;27;113607;-79
2023/06/14 06:12:58;;;;;;;;;;;20.60;44.90;;;21.28;33.34;98276.69;5022390;27;114080;-80
2023/06/14 06:15:24;;;;;;;;;;;20.70;44.90;;;21.34;33.28;98278.72;5028208;28;124103;-79
2023/06/14 06:17:51;;;;;;;;;;;20.80;44.90;;;21.41;33.28;98280.78;5031410;27;124248;-79
2023/06/14 06:20:17;;;;;;;;;;;20.90;44.90;;;21.47;32.80;98289.66;5032175;27;114280;-79
2023/06/14 06:22:43;;;;;;;;;;;20.90;45.40;;;21.53;32.74;98280.41;5030099;27;113677;-80
2023/06/14 06:25:09;;;;;;;;;;;21.00;44.80;;;21.60;32.90;98291.69;5018361;28;124097;-80
2023/06/14 06:27:40;;;;;;;;;;;21.00;44.60;;;21.66;32.32;98296.91;5011561;27;123997;-80
2023/06/14 06:30:06;;;;;;;;;;;21.10;44.30;;;21.70;32.37;98287.25;5028943;27;115227;-80
2023/06/14 06:32:35;;;;;;;;;;;21.10;44.20;;;21.76;32.58;98290.47;5031223;27;114434;-79
2023/06/14 06:35:02;;;;;;;;;;;21.20;44.20;;;21.78;32.32;98288.06;5022656;27;123793;-79
2023/06/14 06:37:28;;;;;;;;;;;21.20;44.30;;;21.75;32.44;98294.50;4997318;28;123215;-79
2023/06/14 06:39:54;;;;;;;;;;;21.20;44.30;;;21.74;32.45;98298.53;5023090;27;114984;-79
2023/06/14 06:42:20;;;;;;;;;;;21.20;44.00;;;21.73;32.39;98294.88;5017769;27;114061;-80
2023/06/14 06:44:49;;;;;;;;;;;21.20;44.00;;;21.72;32.65;98298.13;5027592;27;124352;-79
2023/06/14 06:47:15;;;;;;;;;;;21.20;44.00;;;21.73;32.67;98302.53;5011871;28;123195;-79
2023/06/14 06:49:41;;;;;;;;;;;21.30;44.00;;;21.81;32.25;98298.53;5030137;27;114336;-79
2023/06/14 06:52:08;;;;;;;;;;;21.30;44.10;;;21.89;32.33;98300.13;5024233;27;114639;-79
2023/06/14 06:54:34;;;;;;;;;;;21.40;43.90;;;21.96;32.21;98314.22;5030417;27;124627;-79
2023/06/14 06:57:03;;;;;;;;;;;21.50;43.90;;;22.06;31.90;98310.59;5031255;27;123955;-78
2023/06/14 06:59:30;;;;;;;;;;;21.50;43.70;;;22.08;31.76;98310.19;5018858;27;114616;-81
2023/06/14 07:01:56;;;;;;;;;;;21.60;43.40;;;22.08;31.61;98321.44;5014005;27;113804;-79
2023/06/14 07:04:22;;;;;;;;;;;21.60;43.00;;;22.13;31.56;98309.00;5008285;28;123863;-79
2023/06/14 07:06:48;;;;;;;;;;;21.60;43.10;;;22.19;31.62;98319.50;5030574;27;123705;-80
2023/06/14 07:09:16;;;;;;;;;;;21.70;43.00;;;22.26;31.29;98318.66;5025081;27;114659;-78
2023/06/14 07:11:43;;;;;;;;;;;21.80;43.30;;;22.30;31.30;98318.66;5024120;27;113774;-81
2023/06/14 07:14:09;;;;;;;;;;;21.80;43.20;;;22.34;31.08;98320.28;5019369;27;124278;-79
2023/06/14 07:16:38;;;;;;;;;;;21.80;43.10;;;22.39;31.18;98325.50;5027368;28;124319;-80
2023/06/14 07:19:05;;;;;;;;;;;21.80;43.20;;;22.46;31.02;98325.50;5026812;27;115017;-80
2023/06/14 07:21:31;;;;;;;;;;;21.80;43.10;;;22.54;30.92;98328.28;5027902;27;114920;-80
2023/06/14 07:23:57;;;;;;;;;;;21.90;42.90;;;22.57;30.77;98331.13;5023395;27;124369;-81
2023/06/14 07:26:24;;;;;;;;;;;21.90;42.70;;;22.60;30.73;98333.13;5022743;27;124308;-81
2023/06/14 07:28:52;;;;;;;;;;;22.00;43.30;;;22.62;30.53;98341.16;5011721;28;113153;-80
2023/06/14 07:31:19;;;;;;;;;;;22.00;42.20;;;22.63;30.34;98337.94;5029972;27;113676;-80
2023/06/14 07:33:47;;;;;;;;;;;22.00;42.00;;;22.65;30.34;98343.97;5032534;27;124283;-80
2023/06/14 07:36:14;;;;;;;;;;;22.10;42.00;;;22.69;30.51;98350.41;5031876;27;123937;-79
2023/06/14 07:38:40;;;;;;;;;;;22.20;42.00;;;22.67;30.32;98352.00;5032237;27;114823;-79
2023/06/14 07:41:07;;;;;;;;;;;22.20;41.80;;;22.66;30.28;98347.59;5031395;27;113601;-80
2023/06/14 07:43:34;;;;;;;;;;;22.20;41.60;;;22.69;30.50;98352.41;5028422;27;124085;-78
2023/06/14 07:46:00;;;;;;;;;;;22.30;41.60;;;22.76;30.04;98346.78;5023126;27;124522;-79
2023/06/14 07:48:26;;;;;;;;;;;22.30;41.50;;;22.84;30.29;98354.00;5025213;27;114397;-79
2023/06/14 07:50:52;;;;;;;;;;;22.40;42.00;;;22.93;30.33;98351.56;5027458;27;113659;-79
2023/06/14 07:53:19;;;;;;;;;;;22.40;42.00;;;22.99;30.27;98356.81;5027682;27;124651;-79
2023/06/14 07:55:47;;;;;;;;;;;22.40;41.90;;;23.03;30.27;98354.78;5030753;27;123990;-80
2023/06/14 07:58:13;;;;;;;;;;;22.50;42.20;;;23.03;30.38;98349.16;5033724;27;113975;-80
2023/06/14 08:00:39;;;;;;;;;;;22.50;42.10;;;23.09;30.31;98358.78;5029038;27;113820;-79
2023/06/14 08:03:06;;;;;;;;;;;22.50;42.10;;;23.14;30.48;98355.56;5025239;27;126299;-79
2023/06/14 08:05:32;;;;;;;;;;;22.50;42.10;;;23.10;30.25;98347.09;5021248;27;124307;-79
2023/06/14 08:07:59;;;;;;;;;;;22.60;42.00;;;23.12;30.29;98352.34;5025757;27;115521;-79
2023/06/14 08:10:25;;;;;;;;;;;22.60;42.10;;;23.11;30.73;98350.75;5026861;27;114977;-78
2023/06/14 08:12:51;;;;;;;;;;;22.60;42.70;;;23.07;31.09;98342.28;5031269;27;123424;-78
2023/06/14 08:15:18;;;;;;;;;;;22.50;42.90;;;23.10;30.71;98346.28;5021207;27;124308;-78
2023/06/14 08:17:44;;;;;;;;;;;22.50;42.90;;;23.15;30.65;98348.69;5012171;28;113390;-78
2023/06/14 08:20:12;;;;;;;;;;;22.50;43.00;;;23.19;31.29;98343.06;5012383;28;113248;-78
2023/06/14 08:22:39;;;;;;;;;;;22.60;43.20;;;23.21;31.21;98351.91;5025802;27;124246;-77
2023/06/14 08:25:06;;;;;;;;;;;22.60;43.40;;;23.23;31.58;98355.91;5007493;28;123344;-77
2023/06/14 08:27:32;;;;;;;;;;;22.70;44.00;;;23.21;31.52;98354.72;5029917;27;113973;-78
2023/06/14 08:29:59;;;;;;;;;;;22.70;43.90;;;23.22;31.94;98359.16;5012707;27;112630;-77
2023/06/14 08:32:27;;;;;;;;;;;22.70;44.10;;;23.27;31.68;98351.09;5032443;27;123586;-80
2023/06/14 08:34:54;;;;;;;;;;;22.80;44.00;;;23.36;31.80;98362.72;5040966;27;123167;-78
2023/06/14 08:37:20;;;;;;;;;;;22.80;43.90;;;23.43;31.47;98361.06;5038561;27;114382;-77
2023/06/14 08:39:46;;;;;;;;;;;22.90;44.10;;;23.50;31.34;98347.75;5023958;28;114757;-77
2023/06/14 08:42:14;;;;;;;;;;;23.00;44.00;;;23.53;31.28;98352.56;5003605;27;123053;-77
2023/06/14 08:44:45;;;;;;;;;;;23.00;43.70;;;23.54;31.07;98356.19;5008130;28;122942;-77
2023/06/14 08:47:11;;;;;;;;;;;23.00;43.60;;;23.59;31.16;98358.59;5021603;27;113503;-77
2023/06/14 08:49:38;;;;;;;;;;;23.00;43.70;;;23.63;31.08;98358.56;5027687;27;113207;-78
2023/06/14 08:52:05;;;;;;;;;;;23.00;43.70;;;23.62;31.17;98357.78;5024923;27;124562;-77
2023/06/14 08:54:34;;;;;;;;;;;23.10;43.60;;;23.65;31.21;98351.31;5028250;27;123754;-77
2023/06/14 08:57:00;;;;;;;;;;;23.10;43.70;;;23.72;30.98;98345.66;5018288;27;114710;-78
2023/06/14 08:59:27;;;;;;;;;;;23.20;43.70;;;23.78;31.21;98360.94;5026547;27;114817;-78
2023/06/14 09:01:54;;;;;;;;;;;23.20;43.60;;;23.83;30.98;98351.25;5038476;27;124376;-78
2023/06/14 09:04:29;;;;;;;;;;;23.30;43.50;;;23.89;30.64;98360.06;5025941;27;124454;-74
2023/06/14 09:06:56;;;;;;;;;;;23.30;43.20;;;23.98;30.80;98354.75;5027132;27;115410;-75
2023/06/14 09:09:22;;;;;;;;;;;23.40;43.40;;;24.03;31.05;98348.69;5025781;28;113657;-76
2023/06/14 09:11:52;;;;;;;;;;;23.50;43.70;;;24.06;30.51;98356.31;5026444;27;124826;-77
2023/06/14 09:14:19;;;;;;;;;;;23.50;43.40;;;24.10;30.77;98345.81;5020098;27;123542;-76
2023/06/14 09:16:45;;;;;;;;;;;23.60;43.40;;;24.15;30.75;98339.72;5026149;27;114374;-77
2023/06/14 09:19:29;;;;;;;;;;;23.60;43.40;;;24.18;30.82;98341.72;5024344;27;113854;-77
2023/06/14 09:21:55;;;;;;;;;;;23.60;44.20;;;24.23;30.83;98352.56;5020903;27;124817;-75
2023/06/14 09:24:25;;;;;;;;;;;23.70;43.50;;;24.29;30.47;98354.91;5025297;28;124910;-76
2023/06/14 09:26:51;;;;;;;;;;;23.70;43.00;;;24.35;30.67;98353.28;5029677;28;113537;-76
2023/06/14 09:29:18;;;;;;;;;;;23.80;43.20;;;24.41;30.47;98358.03;5027191;27;113721;-76
2023/06/14 09:31:47;;;;;;;;;;;23.90;43.20;;;24.46;30.76;98356.84;5011445;27;123247;-75
2023/06/14 09:34:23;;;;;;;;;;;23.90;43.20;;;24.51;30.09;98350.75;5023592;27;122605;-76
2023/06/14 09:36:50;;;;;;;;;;;24.00;43.00;;;24.55;30.42;98351.50;5025735;27;114382;-75
2023/06/14 09:39:17;;;;;;;;;;;24.00;42.80;;;24.58;30.02;98359.16;5023997;27;114034;-76
2023/06/14 09:41:44;;;;;;;;;;;24.00;42.60;;;24.60;30.15;98364.38;5017349;27;124920;-76
2023/06/14 09:44:11;;;;;;;;;;;24.00;42.60;;;24.59;29.85;98360.75;5007895;27;124637;-76
2023/06/14 09:46:38;;;;;;;;;;;24.00;42.20;;;24.56;29.24;98352.31;5004857;27;115396;-76
2023/06/14 09:49:05;;;;;;;;;;;24.00;41.90;;;24.58;29.50;98347.88;5016026;27;114934;-76
2023/06/14 09:51:31;;;;;;;;;;;24.10;42.20;;;24.62;29.77;98342.16;5026494;28;128309;-76
2023/06/14 09:54:05;;;;;;;;;;;24.20;42.30;;;24.69;29.68;98348.56;5015454;27;124158;-76
2023/06/14 09:56:38;;;;;;;;;;;24.20;42.30;;;24.75;29.61;98350.94;5021087;27;115052;-76
2023/06/14 09:59:05;;;;;;;;;;;24.20;42.00;;;24.80;29.41;98356.94;5007055;28;113876;-75
2023/06/14 10:01:32;;;;;;;;;;;24.30;42.10;;;24.78;29.06;98348.06;5013763;27;124221;-75
2023/06/14 10:04:06;;;;;;;;;;;24.30;41.20;;;24.77;29.10;98340.00;5017885;27;124377;-76
2023/06/14 10:06:40;;;;;;;;;;;24.30;41.20;;;24.78;29.28;98341.63;5021765;28;114661;-76
2023/06/14 10:09:08;;;;;;;;;;;25.90;42.60;;;24.81;29.43;98343.59;5027201;27;113770;-75
2023/06/14 10:11:35;;;;;;;;;;;24.30;41.70;;;24.84;29.13;98348.41;5017004;27;124636;-76
2023/06/14 10:14:06;;;;;;;;;;;24.40;41.60;;;24.83;29.36;98341.16;5018020;27;123928;-75
2023/06/14 10:16:35;;;;;;;;;;;24.40;41.60;;;24.84;28.91;98339.94;5016324;27;114895;-78
2023/06/14 10:19:14;;;;;;;;;;;24.50;41.40;;;24.86;28.97;98348.78;5023027;27;113915;-76
2023/06/14 10:21:48;;;;;;;;;;;24.50;41.10;;;24.89;28.98;98348.75;5014091;27;123236;-76
2023/06/14 10:24:18;;;;;;;;;;;24.50;41.20;;;24.91;29.01;98351.16;5014630;27;124555;-76
2023/06/14 10:26:55;;;;;;;;;;;24.50;41.00;;;24.94;29.31;98341.84;5014786;27;114333;-76
2023/06/14 10:29:21;;;;;;;;;;;24.60;41.10;;;25.01;28.60;98336.13;5022999;27;113765;-76
2023/06/14 10:31:49;;;;;;;;;;;24.60;40.80;;;25.05;28.24;98338.91;5021837;27;124227;-76
2023/06/14 10:34:31;;;;;;;;;;;24.70;40.60;;;25.04;28.60;98340.94;5030375;27;124110;-77
2023/06/14 10:37:11;;;;;;;;;;;24.70;40.60;;;24.98;28.07;98336.13;5029136;27;115318;-77
2023/06/14 10:39:42;;;;;;;;;;;24.60;40.00;;;24.95;28.55;98340.59;5020921;28;114520;-75
2023/06/14 10:42:09;;;;;;;;;;;24.60;40.20;;;25.00;28.20;98336.53;5010078;27;124824;-76
2023/06/14 10:44:49;;;;;;;;;;;24.60;40.20;;;25.03;28.01;98335.69;5023478;27;123918;-76
2023/06/14 10:47:32;;;;;;;;;;;24.60;39.80;;;25.08;28.08;98338.84;5010444;28;114253;-76
2023/06/14 10:50:01;;;;;;;;;;;24.70;39.70;;;25.15;27.99;98332.34;5033140;27;113772;-76
2023/06/14 10:52:35;;;;;;;;;;;24.70;39.80;;;25.24;27.54;98331.84;5028379;27;124532;-77
2023/06/14 10:55:14;;;;;;;;;;;24.70;39.60;;;25.29;27.11;98339.84;5014814;27;123126;-77
2023/06/14 10:57:43;;;;;;;;;;;24.80;39.30;;;25.37;27.02;98343.41;5016641;27;113716;-77
2023/06/14 11:00:15;;;;;;;;;;;24.80;39.20;;;25.46;26.84;98340.84;5024377;27;113742;-78
2023/06/14 11:03:08;;;;;;;;;;;24.90;38.50;;;25.50;26.52;98336.75;5022232;27;125265;-78
2023/06/14 11:05:47;;;;;;;;;;;25.00;38.20;;;25.57;26.38;98328.16;5028090;27;123669;-77
2023/06/14 11:08:52;;;;;;;;;;;25.10;38.00;;;25.64;26.47;98323.63;5030230;27;113651;-76
2023/06/14 11:11:21;;;;;;;;;;;25.10;37.80;;;25.73;25.63;98332.38;5029003;27;114005;-77
2023/06/14 11:13:47;;;;;;;;;;;25.20;36.90;;;25.81;25.99;98318.94;5032047;27;123862;-77